sensor_id;sensor_type;location;lat;lon;timestamp;P1;durP1;ratioP1;P2;durP2;ratioP2
58661;SDS011;44432;49.786;22.760;2023-04-19T00:01:00;20.70;;;12.20;;
58661;SDS011;44432;49.786;22.760;2023-04-19T00:03:31;21.40;;;12.30;;
58661;SDS011;44432;49.786;22.760;2023-04-19T00:06:01;20.30;;;12.20;;
58661;SDS011;44432;49.786;22.760;2023-04-19T00:08:32;18.40;;;11.20;;
58661;SDS011;44432;49.786;22.760;2023-04-19T00:11:02;20.00;;;11.70;;
58661;SDS011;44432;49.786;22.760;2023-04-19T00:13:33;16.20;;;11.50;;
58661;SDS011;44432;49.786;22.760;2023-04-19T00:16:05;18.20;;;11.50;;
58661;SDS011;44432;49.786;22.760;2023-04-19T00:18:36;13.80;;;10.50;;
58661;SDS011;44432;49.786;22.760;2023-04-19T00:21:07;16.40;;;10.60;;
58661;SDS011;44432;49.786;22.760;2023-04-19T00:23:38;19.40;;;11.50;;
58661;SDS011;44432;49.786;22.760;2023-04-19T00:26:08;17.60;;;11.40;;
58661;SDS011;44432;49.786;22.760;2023-04-19T00:28:42;16.10;;;11.00;;
58661;SDS011;44432;49.786;22.760;2023-04-19T00:31:12;19.10;;;10.90;;
58661;SDS011;44432;49.786;22.760;2023-04-19T00:33:43;16.80;;;10.80;;
58661;SDS011;44432;49.786;22.760;2023-04-19T00:36:14;18.40;;;10.50;;
58661;SDS011;44432;49.786;22.760;2023-04-19T00:38:44;16.30;;;11.20;;
58661;SDS011;44432;49.786;22.760;2023-04-19T00:41:15;14.60;;;10.30;;
58661;SDS011;44432;49.786;22.760;2023-04-19T00:43:45;14.70;;;10.40;;
58661;SDS011;44432;49.786;22.760;2023-04-19T00:46:16;15.60;;;10.30;;
58661;SDS011;44432;49.786;22.760;2023-04-19T00:48:46;18.90;;;11.90;;
58661;SDS011;44432;49.786;22.760;2023-04-19T00:51:18;16.50;;;10.80;;
58661;SDS011;44432;49.786;22.760;2023-04-19T00:53:49;17.50;;;10.90;;
58661;SDS011;44432;49.786;22.760;2023-04-19T00:56:21;16.60;;;11.00;;
58661;SDS011;44432;49.786;22.760;2023-04-19T00:58:54;16.20;;;10.80;;
58661;SDS011;44432;49.786;22.760;2023-04-19T01:01:25;17.70;;;11.50;;
58661;SDS011;44432;49.786;22.760;2023-04-19T01:03:56;17.90;;;11.00;;
58661;SDS011;44432;49.786;22.760;2023-04-19T01:06:28;21.30;;;11.30;;
58661;SDS011;44432;49.786;22.760;2023-04-19T01:08:59;16.90;;;10.50;;
58661;SDS011;44432;49.786;22.760;2023-04-19T01:11:30;16.10;;;11.00;;
58661;SDS011;44432;49.786;22.760;2023-04-19T01:14:01;17.00;;;10.50;;
58661;SDS011;44432;49.786;22.760;2023-04-19T01:16:32;15.70;;;10.50;;
58661;SDS011;44432;49.786;22.760;2023-04-19T01:19:03;18.60;;;10.90;;
58661;SDS011;44432;49.786;22.760;2023-04-19T01:21:33;20.50;;;11.40;;
58661;SDS011;44432;49.786;22.760;2023-04-19T01:26:36;17.40;;;10.60;;
58661;SDS011;44432;49.786;22.760;2023-04-19T01:29:06;16.50;;;10.00;;
58661;SDS011;44432;49.786;22.760;2023-04-19T01:31:37;18.60;;;12.00;;
58661;SDS011;44432;49.786;22.760;2023-04-19T01:34:08;18.50;;;10.90;;
58661;SDS011;44432;49.786;22.760;2023-04-19T01:36:38;16.80;;;10.20;;
58661;SDS011;44432;49.786;22.760;2023-04-19T01:39:09;17.10;;;11.00;;
58661;SDS011;44432;49.786;22.760;2023-04-19T01:41:40;17.30;;;11.20;;
58661;SDS011;44432;49.786;22.760;2023-04-19T01:44:10;18.00;;;11.10;;
58661;SDS011;44432;49.786;22.760;2023-04-19T01:46:41;16.00;;;10.70;;
58661;SDS011;44432;49.786;22.760;2023-04-19T01:49:12;15.80;;;10.50;;
58661;SDS011;44432;49.786;22.760;2023-04-19T01:51:43;16.40;;;11.30;;
58661;SDS011;44432;49.786;22.760;2023-04-19T01:54:13;14.70;;;10.50;;
58661;SDS011;44432;49.786;22.760;2023-04-19T01:56:44;18.30;;;11.50;;
58661;SDS011;44432;49.786;22.760;2023-04-19T01:59:14;18.50;;;11.30;;
58661;SDS011;44432;49.786;22.760;2023-04-19T02:01:45;14.60;;;10.70;;
58661;SDS011;44432;49.786;22.760;2023-04-19T02:04:17;19.60;;;11.40;;
58661;SDS011;44432;49.786;22.760;2023-04-19T02:06:48;18.40;;;11.20;;
58661;SDS011;44432;49.786;22.760;2023-04-19T02:09:19;16.20;;;10.60;;
58661;SDS011;44432;49.786;22.760;2023-04-19T02:11:50;17.70;;;11.30;;
58661;SDS011;44432;49.786;22.760;2023-04-19T02:14:20;16.90;;;10.60;;
58661;SDS011;44432;49.786;22.760;2023-04-19T02:16:51;15.00;;;10.80;;
58661;SDS011;44432;49.786;22.760;2023-04-19T02:19:21;16.70;;;10.70;;
58661;SDS011;44432;49.786;22.760;2023-04-19T02:21:52;17.30;;;11.40;;
58661;SDS011;44432;49.786;22.760;2023-04-19T02:24:24;17.90;;;11.70;;
58661;SDS011;44432;49.786;22.760;2023-04-19T02:26:55;19.70;;;11.00;;
58661;SDS011;44432;49.786;22.760;2023-04-19T02:29:25;16.60;;;11.10;;
58661;SDS011;44432;49.786;22.760;2023-04-19T02:31:55;16.40;;;10.90;;
58661;SDS011;44432;49.786;22.760;2023-04-19T02:34:27;17.80;;;10.90;;
58661;SDS011;44432;49.786;22.760;2023-04-19T02:36:58;14.30;;;10.40;;
58661;SDS011;44432;49.786;22.760;2023-04-19T02:39:28;16.10;;;10.60;;
58661;SDS011;44432;49.786;22.760;2023-04-19T02:41:59;14.70;;;11.10;;
58661;SDS011;44432;49.786;22.760;2023-04-19T02:44:29;19.50;;;11.60;;
58661;SDS011;44432;49.786;22.760;2023-04-19T02:47:00;16.70;;;11.60;;
58661;SDS011;44432;49.786;22.760;2023-04-19T02:49:31;20.00;;;11.10;;
58661;SDS011;44432;49.786;22.760;2023-04-19T02:52:03;18.50;;;11.80;;
58661;SDS011;44432;49.786;22.760;2023-04-19T02:54:34;17.60;;;11.90;;
58661;SDS011;44432;49.786;22.760;2023-04-19T02:57:04;16.70;;;11.70;;
58661;SDS011;44432;49.786;22.760;2023-04-19T02:59:35;17.80;;;11.60;;
58661;SDS011;44432;49.786;22.760;2023-04-19T03:02:05;17.00;;;11.40;;
58661;SDS011;44432;49.786;22.760;2023-04-19T03:04:36;19.00;;;12.10;;
58661;SDS011;44432;49.786;22.760;2023-04-19T03:07:07;16.20;;;11.40;;
58661;SDS011;44432;49.786;22.760;2023-04-19T03:09:37;15.80;;;11.50;;
58661;SDS011;44432;49.786;22.760;2023-04-19T03:12:08;17.70;;;12.30;;
58661;SDS011;44432;49.786;22.760;2023-04-19T03:14:38;23.20;;;12.60;;
58661;SDS011;44432;49.786;22.760;2023-04-19T03:17:09;18.00;;;11.60;;
58661;SDS011;44432;49.786;22.760;2023-04-19T03:19:39;19.00;;;12.00;;
58661;SDS011;44432;49.786;22.760;2023-04-19T03:22:10;21.00;;;11.70;;
58661;SDS011;44432;49.786;22.760;2023-04-19T03:24:40;15.40;;;10.90;;
58661;SDS011;44432;49.786;22.760;2023-04-19T03:27:11;19.30;;;12.60;;
58661;SDS011;44432;49.786;22.760;2023-04-19T03:29:41;18.00;;;11.90;;
58661;SDS011;44432;49.786;22.760;2023-04-19T03:32:12;18.40;;;12.20;;
58661;SDS011;44432;49.786;22.760;2023-04-19T03:34:42;20.40;;;12.50;;
58661;SDS011;44432;49.786;22.760;2023-04-19T03:37:13;17.80;;;12.50;;
58661;SDS011;44432;49.786;22.760;2023-04-19T03:39:44;19.00;;;12.00;;
58661;SDS011;44432;49.786;22.760;2023-04-19T03:42:14;25.20;;;13.50;;
58661;SDS011;44432;49.786;22.760;2023-04-19T03:44:45;27.90;;;13.80;;
58661;SDS011;44432;49.786;22.760;2023-04-19T03:47:15;20.90;;;12.90;;
58661;SDS011;44432;49.786;22.760;2023-04-19T03:49:46;22.60;;;14.30;;
58661;SDS011;44432;49.786;22.760;2023-04-19T03:52:17;25.10;;;14.00;;
58661;SDS011;44432;49.786;22.760;2023-04-19T03:54:47;29.00;;;16.50;;
58661;SDS011;44432;49.786;22.760;2023-04-19T03:57:18;30.90;;;15.70;;
58661;SDS011;44432;49.786;22.760;2023-04-19T03:59:48;26.50;;;15.80;;
58661;SDS011;44432;49.786;22.760;2023-04-19T04:02:19;27.10;;;13.90;;
58661;SDS011;44432;49.786;22.760;2023-04-19T04:04:53;23.20;;;14.90;;
58661;SDS011;44432;49.786;22.760;2023-04-19T04:07:23;27.80;;;14.70;;
58661;SDS011;44432;49.786;22.760;2023-04-19T04:09:54;22.60;;;14.80;;
58661;SDS011;44432;49.786;22.760;2023-04-19T04:12:25;21.60;;;12.90;;
58661;SDS011;44432;49.786;22.760;2023-04-19T04:14:55;20.60;;;13.40;;
58661;SDS011;44432;49.786;22.760;2023-04-19T04:17:26;17.80;;;13.00;;
58661;SDS011;44432;49.786;22.760;2023-04-19T04:19:56;23.10;;;14.10;;
58661;SDS011;44432;49.786;22.760;2023-04-19T04:22:28;22.40;;;13.70;;
58661;SDS011;44432;49.786;22.760;2023-04-19T04:24:59;26.00;;;14.80;;
58661;SDS011;44432;49.786;22.760;2023-04-19T04:27:30;23.00;;;14.80;;
58661;SDS011;44432;49.786;22.760;2023-04-19T04:30:01;19.30;;;13.00;;
58661;SDS011;44432;49.786;22.760;2023-04-19T04:32:31;20.70;;;13.10;;
58661;SDS011;44432;49.786;22.760;2023-04-19T04:35:03;19.60;;;13.20;;
58661;SDS011;44432;49.786;22.760;2023-04-19T04:37:35;24.30;;;14.30;;
58661;SDS011;44432;49.786;22.760;2023-04-19T04:40:07;28.80;;;17.50;;
58661;SDS011;44432;49.786;22.760;2023-04-19T04:42:39;17.40;;;13.50;;
58661;SDS011;44432;49.786;22.760;2023-04-19T04:45:12;18.80;;;13.50;;
58661;SDS011;44432;49.786;22.760;2023-04-19T04:47:44;20.70;;;13.40;;
58661;SDS011;44432;49.786;22.760;2023-04-19T04:50:15;18.60;;;13.80;;
58661;SDS011;44432;49.786;22.760;2023-04-19T04:52:46;19.90;;;13.60;;
58661;SDS011;44432;49.786;22.760;2023-04-19T04:55:16;22.80;;;13.30;;
58661;SDS011;44432;49.786;22.760;2023-04-19T04:57:47;24.30;;;14.30;;
58661;SDS011;44432;49.786;22.760;2023-04-19T05:00:18;21.00;;;14.00;;
58661;SDS011;44432;49.786;22.760;2023-04-19T05:02:49;17.20;;;12.40;;
58661;SDS011;44432;49.786;22.760;2023-04-19T05:05:20;22.70;;;12.60;;
58661;SDS011;44432;49.786;22.760;2023-04-19T05:07:51;17.70;;;12.60;;
58661;SDS011;44432;49.786;22.760;2023-04-19T05:10:22;18.60;;;13.20;;
58661;SDS011;44432;49.786;22.760;2023-04-19T05:12:52;16.50;;;12.20;;
58661;SDS011;44432;49.786;22.760;2023-04-19T05:15:23;17.50;;;12.10;;
58661;SDS011;44432;49.786;22.760;2023-04-19T05:17:54;18.50;;;13.60;;
58661;SDS011;44432;49.786;22.760;2023-04-19T05:20:25;16.00;;;11.90;;
58661;SDS011;44432;49.786;22.760;2023-04-19T05:22:59;16.70;;;12.70;;
58661;SDS011;44432;49.786;22.760;2023-04-19T05:25:30;17.90;;;13.00;;
58661;SDS011;44432;49.786;22.760;2023-04-19T05:28:01;17.00;;;12.40;;
58661;SDS011;44432;49.786;22.760;2023-04-19T05:30:32;17.60;;;13.20;;
58661;SDS011;44432;49.786;22.760;2023-04-19T05:33:03;15.20;;;12.40;;
58661;SDS011;44432;49.786;22.760;2023-04-19T05:35:33;16.60;;;12.50;;
58661;SDS011;44432;49.786;22.760;2023-04-19T05:38:04;17.00;;;13.00;;
58661;SDS011;44432;49.786;22.760;2023-04-19T05:40:35;17.30;;;12.80;;
58661;SDS011;44432;49.786;22.760;2023-04-19T05:43:06;18.00;;;13.00;;
58661;SDS011;44432;49.786;22.760;2023-04-19T05:45:37;21.80;;;13.70;;
58661;SDS011;44432;49.786;22.760;2023-04-19T05:48:08;17.60;;;13.80;;
58661;SDS011;44432;49.786;22.760;2023-04-19T05:50:39;18.60;;;14.10;;
58661;SDS011;44432;49.786;22.760;2023-04-19T05:53:09;15.60;;;12.50;;
58661;SDS011;44432;49.786;22.760;2023-04-19T05:55:40;17.80;;;12.90;;
58661;SDS011;44432;49.786;22.760;2023-04-19T05:58:12;16.30;;;12.00;;
58661;SDS011;44432;49.786;22.760;2023-04-19T06:00:43;15.70;;;12.70;;
58661;SDS011;44432;49.786;22.760;2023-04-19T06:03:13;17.30;;;13.40;;
58661;SDS011;44432;49.786;22.760;2023-04-19T06:05:44;16.30;;;12.60;;
58661;SDS011;44432;49.786;22.760;2023-04-19T06:08:15;17.50;;;12.00;;
58661;SDS011;44432;49.786;22.760;2023-04-19T06:10:45;18.10;;;13.40;;
58661;SDS011;44432;49.786;22.760;2023-04-19T06:13:16;20.30;;;12.90;;
58661;SDS011;44432;49.786;22.760;2023-04-19T06:15:47;15.70;;;12.40;;
58661;SDS011;44432;49.786;22.760;2023-04-19T06:18:17;17.90;;;13.00;;
58661;SDS011;44432;49.786;22.760;2023-04-19T06:20:48;24.80;;;18.20;;
58661;SDS011;44432;49.786;22.760;2023-04-19T06:23:20;17.30;;;12.90;;
58661;SDS011;44432;49.786;22.760;2023-04-19T06:25:52;18.10;;;12.60;;
58661;SDS011;44432;49.786;22.760;2023-04-19T06:28:22;17.80;;;13.00;;
58661;SDS011;44432;49.786;22.760;2023-04-19T06:30:53;20.80;;;13.20;;
58661;SDS011;44432;49.786;22.760;2023-04-19T06:33:24;18.20;;;13.40;;
58661;SDS011;44432;49.786;22.760;2023-04-19T06:35:54;22.70;;;13.70;;
58661;SDS011;44432;49.786;22.760;2023-04-19T06:38:25;17.50;;;12.00;;
58661;SDS011;44432;49.786;22.760;2023-04-19T06:40:56;20.90;;;13.40;;
58661;SDS011;44432;49.786;22.760;2023-04-19T06:43:26;16.20;;;12.40;;
58661;SDS011;44432;49.786;22.760;2023-04-19T06:45:58;15.20;;;11.60;;
58661;SDS011;44432;49.786;22.760;2023-04-19T06:48:32;19.70;;;12.60;;
58661;SDS011;44432;49.786;22.760;2023-04-19T06:51:03;18.00;;;12.70;;
58661;SDS011;44432;49.786;22.760;2023-04-19T06:53:34;19.40;;;12.70;;
58661;SDS011;44432;49.786;22.760;2023-04-19T06:56:05;15.40;;;12.10;;
58661;SDS011;44432;49.786;22.760;2023-04-19T06:58:37;15.70;;;12.00;;
58661;SDS011;44432;49.786;22.760;2023-04-19T07:01:07;17.70;;;13.20;;
58661;SDS011;44432;49.786;22.760;2023-04-19T07:03:38;17.00;;;13.20;;
58661;SDS011;44432;49.786;22.760;2023-04-19T07:06:09;15.90;;;11.60;;
58661;SDS011;44432;49.786;22.760;2023-04-19T07:08:39;19.80;;;13.30;;
58661;SDS011;44432;49.786;22.760;2023-04-19T07:11:10;17.50;;;13.40;;
58661;SDS011;44432;49.786;22.760;2023-04-19T07:13:40;15.60;;;12.80;;
58661;SDS011;44432;49.786;22.760;2023-04-19T07:16:11;22.10;;;14.00;;
58661;SDS011;44432;49.786;22.760;2023-04-19T07:18:42;17.40;;;13.40;;
58661;SDS011;44432;49.786;22.760;2023-04-19T07:21:12;18.40;;;12.60;;
58661;SDS011;44432;49.786;22.760;2023-04-19T07:23:43;20.00;;;12.10;;
58661;SDS011;44432;49.786;22.760;2023-04-19T07:26:14;18.40;;;12.00;;
58661;SDS011;44432;49.786;22.760;2023-04-19T07:28:44;17.40;;;12.10;;
58661;SDS011;44432;49.786;22.760;2023-04-19T07:31:16;17.90;;;11.40;;
58661;SDS011;44432;49.786;22.760;2023-04-19T07:33:47;16.70;;;11.90;;
58661;SDS011;44432;49.786;22.760;2023-04-19T07:36:19;19.20;;;12.10;;
58661;SDS011;44432;49.786;22.760;2023-04-19T07:38:49;17.60;;;11.80;;
58661;SDS011;44432;49.786;22.760;2023-04-19T07:41:20;18.70;;;12.40;;
58661;SDS011;44432;49.786;22.760;2023-04-19T07:43:51;13.40;;;10.70;;
58661;SDS011;44432;49.786;22.760;2023-04-19T07:46:21;18.20;;;11.80;;
58661;SDS011;44432;49.786;22.760;2023-04-19T07:48:52;14.00;;;10.50;;
58661;SDS011;44432;49.786;22.760;2023-04-19T07:51:22;17.00;;;11.10;;
58661;SDS011;44432;49.786;22.760;2023-04-19T07:53:54;12.20;;;9.70;;
58661;SDS011;44432;49.786;22.760;2023-04-19T07:56:25;14.10;;;11.30;;
58661;SDS011;44432;49.786;22.760;2023-04-19T07:58:55;14.60;;;10.40;;
58661;SDS011;44432;49.786;22.760;2023-04-19T08:01:26;14.90;;;10.00;;
58661;SDS011;44432;49.786;22.760;2023-04-19T08:03:57;13.80;;;10.50;;
58661;SDS011;44432;49.786;22.760;2023-04-19T08:06:27;15.80;;;10.60;;
58661;SDS011;44432;49.786;22.760;2023-04-19T08:08:59;15.80;;;10.40;;
58661;SDS011;44432;49.786;22.760;2023-04-19T08:11:29;14.10;;;10.50;;
58661;SDS011;44432;49.786;22.760;2023-04-19T08:14:00;13.70;;;9.90;;
58661;SDS011;44432;49.786;22.760;2023-04-19T08:16:31;13.90;;;10.00;;
58661;SDS011;44432;49.786;22.760;2023-04-19T08:19:02;15.30;;;11.00;;
58661;SDS011;44432;49.786;22.760;2023-04-19T08:21:32;16.30;;;10.60;;
58661;SDS011;44432;49.786;22.760;2023-04-19T08:24:03;15.00;;;11.00;;
58661;SDS011;44432;49.786;22.760;2023-04-19T08:26:35;17.70;;;10.60;;
58661;SDS011;44432;49.786;22.760;2023-04-19T08:29:06;13.80;;;10.80;;
58661;SDS011;44432;49.786;22.760;2023-04-19T08:31:37;18.30;;;11.80;;
58661;SDS011;44432;49.786;22.760;2023-04-19T08:34:11;14.60;;;10.80;;
58661;SDS011;44432;49.786;22.760;2023-04-19T08:36:42;12.10;;;9.80;;
58661;SDS011;44432;49.786;22.760;2023-04-19T08:39:12;16.70;;;11.00;;
58661;SDS011;44432;49.786;22.760;2023-04-19T08:41:43;15.70;;;9.60;;
58661;SDS011;44432;49.786;22.760;2023-04-19T08:44:14;13.60;;;9.90;;
58661;SDS011;44432;49.786;22.760;2023-04-19T08:46:46;13.60;;;9.90;;
58661;SDS011;44432;49.786;22.760;2023-04-19T08:49:17;16.60;;;10.00;;
58661;SDS011;44432;49.786;22.760;2023-04-19T08:51:48;13.60;;;9.10;;
58661;SDS011;44432;49.786;22.760;2023-04-19T08:54:20;12.40;;;8.60;;
58661;SDS011;44432;49.786;22.760;2023-04-19T08:56:52;10.50;;;8.50;;
58661;SDS011;44432;49.786;22.760;2023-04-19T08:59:23;12.40;;;9.30;;
58661;SDS011;44432;49.786;22.760;2023-04-19T09:04:50;11.70;;;8.50;;
58661;SDS011;44432;49.786;22.760;2023-04-19T09:07:24;12.50;;;8.70;;
58661;SDS011;44432;49.786;22.760;2023-04-19T09:10:06;11.30;;;8.20;;
58661;SDS011;44432;49.786;22.760;2023-04-19T09:12:39;12.30;;;9.10;;
58661;SDS011;44432;49.786;22.760;2023-04-19T09:15:10;12.20;;;9.50;;
58661;SDS011;44432;49.786;22.760;2023-04-19T09:17:41;11.20;;;8.80;;
58661;SDS011;44432;49.786;22.760;2023-04-19T09:20:12;12.90;;;8.30;;
58661;SDS011;44432;49.786;22.760;2023-04-19T09:22:43;10.80;;;8.10;;
58661;SDS011;44432;49.786;22.760;2023-04-19T09:25:33;15.00;;;9.00;;
58661;SDS011;44432;49.786;22.760;2023-04-19T09:28:10;12.20;;;8.70;;
58661;SDS011;44432;49.786;22.760;2023-04-19T09:30:42;13.60;;;8.70;;
58661;SDS011;44432;49.786;22.760;2023-04-19T09:33:13;11.40;;;8.90;;
58661;SDS011;44432;49.786;22.760;2023-04-19T09:36:00;11.60;;;8.30;;
58661;SDS011;44432;49.786;22.760;2023-04-19T09:38:33;11.30;;;8.90;;
58661;SDS011;44432;49.786;22.760;2023-04-19T09:41:16;11.50;;;8.50;;
58661;SDS011;44432;49.786;22.760;2023-04-19T09:43:47;11.10;;;8.30;;
58661;SDS011;44432;49.786;22.760;2023-04-19T09:46:29;13.50;;;9.00;;
58661;SDS011;44432;49.786;22.760;2023-04-19T09:49:18;11.70;;;8.00;;
58661;SDS011;44432;49.786;22.760;2023-04-19T09:51:50;10.40;;;7.50;;
58661;SDS011;44432;49.786;22.760;2023-04-19T09:54:23;12.60;;;8.00;;
58661;SDS011;44432;49.786;22.760;2023-04-19T09:56:56;10.20;;;7.80;;
58661;SDS011;44432;49.786;22.760;2023-04-19T09:59:29;11.00;;;7.60;;
58661;SDS011;44432;49.786;22.760;2023-04-19T10:02:00;12.60;;;7.80;;
58661;SDS011;44432;49.786;22.760;2023-04-19T10:04:33;11.40;;;8.10;;
58661;SDS011;44432;49.786;22.760;2023-04-19T10:07:05;14.30;;;9.10;;
58661;SDS011;44432;49.786;22.760;2023-04-19T10:09:36;10.70;;;8.30;;
58661;SDS011;44432;49.786;22.760;2023-04-19T10:12:08;14.40;;;7.60;;
58661;SDS011;44432;49.786;22.760;2023-04-19T10:14:38;9.60;;;6.70;;
58661;SDS011;44432;49.786;22.760;2023-04-19T10:17:10;10.90;;;7.10;;
58661;SDS011;44432;49.786;22.760;2023-04-19T10:19:41;8.50;;;6.60;;
58661;SDS011;44432;49.786;22.760;2023-04-19T10:22:13;11.30;;;7.00;;
58661;SDS011;44432;49.786;22.760;2023-04-19T10:24:57;11.50;;;7.20;;
58661;SDS011;44432;49.786;22.760;2023-04-19T10:27:37;10.20;;;6.30;;
58661;SDS011;44432;49.786;22.760;2023-04-19T10:30:19;10.20;;;7.10;;
58661;SDS011;44432;49.786;22.760;2023-04-19T10:32:52;10.20;;;6.70;;
58661;SDS011;44432;49.786;22.760;2023-04-19T10:38:05;11.70;;;8.30;;
58661;SDS011;44432;49.786;22.760;2023-04-19T10:40:56;9.80;;;7.80;;
58661;SDS011;44432;49.786;22.760;2023-04-19T10:43:28;11.00;;;7.80;;
58661;SDS011;44432;49.786;22.760;2023-04-19T10:46:01;12.40;;;6.70;;
58661;SDS011;44432;49.786;22.760;2023-04-19T10:48:35;10.70;;;6.80;;
58661;SDS011;44432;49.786;22.760;2023-04-19T10:51:14;11.60;;;7.90;;
58661;SDS011;44432;49.786;22.760;2023-04-19T10:53:49;11.00;;;6.60;;
58661;SDS011;44432;49.786;22.760;2023-04-19T10:56:55;10.90;;;8.20;;
58661;SDS011;44432;49.786;22.760;2023-04-19T10:59:27;9.30;;;7.50;;
58661;SDS011;44432;49.786;22.760;2023-04-19T11:01:59;12.80;;;8.60;;
58661;SDS011;44432;49.786;22.760;2023-04-19T11:07:41;13.20;;;7.60;;
58661;SDS011;44432;49.786;22.760;2023-04-19T11:10:17;12.40;;;7.20;;
58661;SDS011;44432;49.786;22.760;2023-04-19T11:12:58;12.90;;;8.40;;
58661;SDS011;44432;49.786;22.760;2023-04-19T11:15:28;10.00;;;8.10;;
58661;SDS011;44432;49.786;22.760;2023-04-19T11:17:59;13.90;;;8.00;;
58661;SDS011;44432;49.786;22.760;2023-04-19T11:20:31;11.80;;;8.30;;
58661;SDS011;44432;49.786;22.760;2023-04-19T11:23:02;10.20;;;8.00;;
58661;SDS011;44432;49.786;22.760;2023-04-19T11:25:43;9.70;;;7.20;;
58661;SDS011;44432;49.786;22.760;2023-04-19T11:28:15;10.80;;;7.30;;
58661;SDS011;44432;49.786;22.760;2023-04-19T11:30:48;13.60;;;6.40;;
58661;SDS011;44432;49.786;22.760;2023-04-19T11:33:20;12.30;;;6.50;;
58661;SDS011;44432;49.786;22.760;2023-04-19T11:35:52;10.60;;;6.80;;
58661;SDS011;44432;49.786;22.760;2023-04-19T11:38:23;9.20;;;6.50;;
58661;SDS011;44432;49.786;22.760;2023-04-19T11:41:00;9.60;;;5.40;;
58661;SDS011;44432;49.786;22.760;2023-04-19T11:43:34;8.00;;;5.30;;
58661;SDS011;44432;49.786;22.760;2023-04-19T11:46:05;9.70;;;5.50;;
58661;SDS011;44432;49.786;22.760;2023-04-19T11:48:37;11.50;;;6.50;;
58661;SDS011;44432;49.786;22.760;2023-04-19T11:51:18;11.30;;;6.50;;
58661;SDS011;44432;49.786;22.760;2023-04-19T11:53:49;10.30;;;5.50;;
58661;SDS011;44432;49.786;22.760;2023-04-19T11:56:20;10.00;;;6.20;;
58661;SDS011;44432;49.786;22.760;2023-04-19T11:58:55;9.40;;;5.60;;
58661;SDS011;44432;49.786;22.760;2023-04-19T12:01:26;11.60;;;6.80;;
58661;SDS011;44432;49.786;22.760;2023-04-19T12:03:59;6.80;;;5.20;;
58661;SDS011;44432;49.786;22.760;2023-04-19T12:06:32;9.00;;;5.60;;
58661;SDS011;44432;49.786;22.760;2023-04-19T12:09:05;8.90;;;5.50;;
58661;SDS011;44432;49.786;22.760;2023-04-19T12:11:42;9.00;;;5.60;;
58661;SDS011;44432;49.786;22.760;2023-04-19T12:14:17;8.70;;;5.40;;
58661;SDS011;44432;49.786;22.760;2023-04-19T12:19:42;9.10;;;5.70;;
58661;SDS011;44432;49.786;22.760;2023-04-19T12:22:15;8.30;;;5.30;;
58661;SDS011;44432;49.786;22.760;2023-04-19T12:24:49;11.00;;;5.90;;
58661;SDS011;44432;49.786;22.760;2023-04-19T12:27:21;10.70;;;5.60;;
58661;SDS011;44432;49.786;22.760;2023-04-19T12:29:52;8.80;;;5.90;;
58661;SDS011;44432;49.786;22.760;2023-04-19T12:32:23;8.90;;;5.90;;
58661;SDS011;44432;49.786;22.760;2023-04-19T12:34:54;12.90;;;6.20;;
58661;SDS011;44432;49.786;22.760;2023-04-19T12:37:24;11.10;;;5.90;;
58661;SDS011;44432;49.786;22.760;2023-04-19T12:39:55;10.40;;;6.10;;
58661;SDS011;44432;49.786;22.760;2023-04-19T12:42:25;7.70;;;5.60;;
58661;SDS011;44432;49.786;22.760;2023-04-19T12:44:56;10.40;;;6.00;;
58661;SDS011;44432;49.786;22.760;2023-04-19T12:47:27;9.90;;;6.60;;
58661;SDS011;44432;49.786;22.760;2023-04-19T12:49:58;11.60;;;6.90;;
58661;SDS011;44432;49.786;22.760;2023-04-19T12:52:29;9.10;;;6.80;;
58661;SDS011;44432;49.786;22.760;2023-04-19T12:55:00;9.90;;;7.00;;
58661;SDS011;44432;49.786;22.760;2023-04-19T12:57:30;10.60;;;5.90;;
58661;SDS011;44432;49.786;22.760;2023-04-19T13:00:01;11.50;;;6.00;;
58661;SDS011;44432;49.786;22.760;2023-04-19T13:02:33;10.60;;;6.90;;
58661;SDS011;44432;49.786;22.760;2023-04-19T13:05:04;9.20;;;6.00;;
58661;SDS011;44432;49.786;22.760;2023-04-19T13:07:36;10.10;;;7.10;;
58661;SDS011;44432;49.786;22.760;2023-04-19T13:10:07;12.90;;;7.10;;
58661;SDS011;44432;49.786;22.760;2023-04-19T13:12:39;11.80;;;7.00;;
58661;SDS011;44432;49.786;22.760;2023-04-19T13:15:10;10.70;;;7.40;;
58661;SDS011;44432;49.786;22.760;2023-04-19T13:17:41;9.50;;;6.80;;
58661;SDS011;44432;49.786;22.760;2023-04-19T13:20:12;10.40;;;7.10;;
58661;SDS011;44432;49.786;22.760;2023-04-19T13:22:43;12.60;;;8.20;;
58661;SDS011;44432;49.786;22.760;2023-04-19T13:25:14;17.20;;;8.40;;
58661;SDS011;44432;49.786;22.760;2023-04-19T13:27:44;13.00;;;8.50;;
58661;SDS011;44432;49.786;22.760;2023-04-19T13:30:15;10.70;;;7.70;;
58661;SDS011;44432;49.786;22.760;2023-04-19T13:32:46;10.30;;;7.70;;
58661;SDS011;44432;49.786;22.760;2023-04-19T13:35:17;11.60;;;6.90;;
58661;SDS011;44432;49.786;22.760;2023-04-19T13:37:48;9.40;;;6.70;;
58661;SDS011;44432;49.786;22.760;2023-04-19T13:40:19;10.10;;;6.50;;
58661;SDS011;44432;49.786;22.760;2023-04-19T13:42:49;9.60;;;6.80;;
58661;SDS011;44432;49.786;22.760;2023-04-19T13:45:21;12.20;;;7.20;;
58661;SDS011;44432;49.786;22.760;2023-04-19T13:47:52;11.70;;;7.00;;
58661;SDS011;44432;49.786;22.760;2023-04-19T13:50:23;10.90;;;8.30;;
58661;SDS011;44432;49.786;22.760;2023-04-19T13:52:54;13.80;;;8.10;;
58661;SDS011;44432;49.786;22.760;2023-04-19T13:55:24;14.50;;;8.10;;
58661;SDS011;44432;49.786;22.760;2023-04-19T13:57:55;14.20;;;7.90;;
58661;SDS011;44432;49.786;22.760;2023-04-19T14:00:26;12.10;;;6.90;;
58661;SDS011;44432;49.786;22.760;2023-04-19T14:02:57;11.10;;;6.60;;
58661;SDS011;44432;49.786;22.760;2023-04-19T14:05:28;10.90;;;7.00;;
58661;SDS011;44432;49.786;22.760;2023-04-19T14:07:59;10.70;;;8.60;;
58661;SDS011;44432;49.786;22.760;2023-04-19T14:10:30;9.70;;;6.50;;
58661;SDS011;44432;49.786;22.760;2023-04-19T14:13:00;8.20;;;6.20;;
58661;SDS011;44432;49.786;22.760;2023-04-19T14:15:32;10.00;;;6.60;;
58661;SDS011;44432;49.786;22.760;2023-04-19T14:18:02;8.60;;;5.80;;
58661;SDS011;44432;49.786;22.760;2023-04-19T14:20:33;8.70;;;5.20;;
58661;SDS011;44432;49.786;22.760;2023-04-19T14:23:04;9.80;;;6.00;;
58661;SDS011;44432;49.786;22.760;2023-04-19T14:25:34;11.60;;;6.60;;
58661;SDS011;44432;49.786;22.760;2023-04-19T14:28:05;9.50;;;6.40;;
58661;SDS011;44432;49.786;22.760;2023-04-19T14:30:36;9.50;;;6.70;;
58661;SDS011;44432;49.786;22.760;2023-04-19T14:33:06;11.60;;;7.80;;
58661;SDS011;44432;49.786;22.760;2023-04-19T14:35:37;13.00;;;8.40;;
58661;SDS011;44432;49.786;22.760;2023-04-19T14:38:08;11.50;;;7.60;;
58661;SDS011;44432;49.786;22.760;2023-04-19T14:40:39;10.00;;;6.50;;
58661;SDS011;44432;49.786;22.760;2023-04-19T14:43:13;11.20;;;7.10;;
58661;SDS011;44432;49.786;22.760;2023-04-19T14:45:44;10.90;;;7.30;;
58661;SDS011;44432;49.786;22.760;2023-04-19T14:48:17;15.00;;;7.20;;
58661;SDS011;44432;49.786;22.760;2023-04-19T14:50:48;17.40;;;8.90;;
58661;SDS011;44432;49.786;22.760;2023-04-19T14:53:18;21.70;;;9.30;;
58661;SDS011;44432;49.786;22.760;2023-04-19T14:55:49;21.30;;;11.60;;